sensor_id;sensor_type;location;lat;lon;timestamp;P1;durP1;ratioP1;P2;durP2;ratioP2
41480;SDS011;27217;51.220;5.308;2022-12-07T00:00:48;31.85;;;17.70;;
41480;SDS011;27217;51.220;5.308;2022-12-07T00:03:14;34.70;;;18.30;;
41480;SDS011;27217;51.220;5.308;2022-12-07T00:05:40;42.17;;;19.65;;
41480;SDS011;27217;51.220;5.308;2022-12-07T00:08:06;42.40;;;17.85;;
41480;SDS011;27217;51.220;5.308;2022-12-07T00:10:35;41.50;;;19.88;;
41480;SDS011;27217;51.220;5.308;2022-12-07T00:13:00;40.60;;;18.77;;
41480;SDS011;27217;51.220;5.308;2022-12-07T00:15:27;39.17;;;18.70;;
41480;SDS011;27217;51.220;5.308;2022-12-07T00:17:52;47.53;;;19.35;;
41480;SDS011;27217;51.220;5.308;2022-12-07T00:20:19;36.63;;;18.90;;
41480;SDS011;27217;51.220;5.308;2022-12-07T00:22:44;41.22;;;18.33;;
41480;SDS011;27217;51.220;5.308;2022-12-07T00:25:10;45.58;;;21.17;;
41480;SDS011;27217;51.220;5.308;2022-12-07T00:27:36;40.63;;;19.85;;
41480;SDS011;27217;51.220;5.308;2022-12-07T00:30:02;39.67;;;19.77;;
41480;SDS011;27217;51.220;5.308;2022-12-07T00:32:28;37.70;;;19.20;;
41480;SDS011;27217;51.220;5.308;2022-12-07T00:34:53;38.22;;;20.33;;
41480;SDS011;27217;51.220;5.308;2022-12-07T00:37:20;41.58;;;20.67;;
41480;SDS011;27217;51.220;5.308;2022-12-07T00:39:46;41.97;;;20.42;;
41480;SDS011;27217;51.220;5.308;2022-12-07T00:42:11;45.78;;;21.25;;
41480;SDS011;27217;51.220;5.308;2022-12-07T00:44:37;39.50;;;20.20;;
41480;SDS011;27217;51.220;5.308;2022-12-07T00:47:03;42.20;;;21.48;;
41480;SDS011;27217;51.220;5.308;2022-12-07T00:49:29;43.78;;;21.02;;
41480;SDS011;27217;51.220;5.308;2022-12-07T00:51:55;43.60;;;20.88;;
41480;SDS011;27217;51.220;5.308;2022-12-07T00:54:21;35.42;;;20.30;;
41480;SDS011;27217;51.220;5.308;2022-12-07T00:56:47;35.47;;;20.35;;
41480;SDS011;27217;51.220;5.308;2022-12-07T00:59:14;40.35;;;20.85;;
41480;SDS011;27217;51.220;5.308;2022-12-07T01:01:40;33.50;;;20.25;;
41480;SDS011;27217;51.220;5.308;2022-12-07T01:04:08;47.03;;;21.50;;
41480;SDS011;27217;51.220;5.308;2022-12-07T01:06:34;41.03;;;19.42;;
41480;SDS011;27217;51.220;5.308;2022-12-07T01:09:00;34.25;;;18.65;;
41480;SDS011;27217;51.220;5.308;2022-12-07T01:11:27;36.97;;;19.75;;
41480;SDS011;27217;51.220;5.308;2022-12-07T01:13:55;37.90;;;17.63;;
41480;SDS011;27217;51.220;5.308;2022-12-07T01:16:23;39.28;;;20.38;;
41480;SDS011;27217;51.220;5.308;2022-12-07T01:18:51;39.20;;;18.25;;
41480;SDS011;27217;51.220;5.308;2022-12-07T01:23:48;37.75;;;19.35;;
41480;SDS011;27217;51.220;5.308;2022-12-07T01:26:16;37.80;;;18.73;;
41480;SDS011;27217;51.220;5.308;2022-12-07T01:28:43;33.58;;;16.75;;
41480;SDS011;27217;51.220;5.308;2022-12-07T01:31:11;34.40;;;18.98;;
41480;SDS011;27217;51.220;5.308;2022-12-07T01:33:40;32.85;;;17.50;;
41480;SDS011;27217;51.220;5.308;2022-12-07T01:36:14;30.75;;;16.50;;
41480;SDS011;27217;51.220;5.308;2022-12-07T01:38:42;32.80;;;17.15;;
41480;SDS011;27217;51.220;5.308;2022-12-07T01:41:08;32.72;;;16.38;;
41480;SDS011;27217;51.220;5.308;2022-12-07T01:43:35;29.38;;;16.95;;
41480;SDS011;27217;51.220;5.308;2022-12-07T01:46:02;42.22;;;18.70;;
41480;SDS011;27217;51.220;5.308;2022-12-07T01:48:37;35.33;;;19.08;;
41480;SDS011;27217;51.220;5.308;2022-12-07T01:51:09;36.92;;;19.50;;
41480;SDS011;27217;51.220;5.308;2022-12-07T01:53:38;39.55;;;20.08;;
41480;SDS011;27217;51.220;5.308;2022-12-07T01:56:09;34.35;;;18.88;;
41480;SDS011;27217;51.220;5.308;2022-12-07T01:58:40;44.05;;;21.20;;
41480;SDS011;27217;51.220;5.308;2022-12-07T02:01:06;45.03;;;20.40;;
41480;SDS011;27217;51.220;5.308;2022-12-07T02:03:34;38.47;;;20.50;;
41480;SDS011;27217;51.220;5.308;2022-12-07T02:06:05;45.42;;;21.42;;
41480;SDS011;27217;51.220;5.308;2022-12-07T02:08:33;33.70;;;18.38;;
41480;SDS011;27217;51.220;5.308;2022-12-07T02:11:00;42.10;;;21.00;;
41480;SDS011;27217;51.220;5.308;2022-12-07T02:13:28;35.20;;;20.33;;
41480;SDS011;27217;51.220;5.308;2022-12-07T02:16:17;39.45;;;20.17;;
41480;SDS011;27217;51.220;5.308;2022-12-07T02:21:33;38.38;;;21.25;;
41480;SDS011;27217;51.220;5.308;2022-12-07T02:29:25;48.53;;;22.85;;
41480;SDS011;27217;51.220;5.308;2022-12-07T02:34:44;41.38;;;19.27;;
41480;SDS011;27217;51.220;5.308;2022-12-07T02:37:53;35.50;;;18.15;;
41480;SDS011;27217;51.220;5.308;2022-12-07T02:40:38;34.00;;;16.27;;
41480;SDS011;27217;51.220;5.308;2022-12-07T02:43:17;32.70;;;17.67;;
41480;SDS011;27217;51.220;5.308;2022-12-07T02:45:49;35.00;;;19.05;;
41480;SDS011;27217;51.220;5.308;2022-12-07T02:48:18;32.72;;;17.50;;
41480;SDS011;27217;51.220;5.308;2022-12-07T02:50:50;32.33;;;17.65;;
41480;SDS011;27217;51.220;5.308;2022-12-07T02:53:29;32.13;;;17.73;;
41480;SDS011;27217;51.220;5.308;2022-12-07T02:56:02;32.25;;;17.08;;
41480;SDS011;27217;51.220;5.308;2022-12-07T03:01:26;29.92;;;16.95;;
41480;SDS011;27217;51.220;5.308;2022-12-07T03:04:08;29.90;;;16.05;;
41480;SDS011;27217;51.220;5.308;2022-12-07T03:07:05;34.88;;;18.67;;
41480;SDS011;27217;51.220;5.308;2022-12-07T03:10:42;34.78;;;18.58;;
41480;SDS011;27217;51.220;5.308;2022-12-07T03:13:02;37.00;;;17.27;;
41480;SDS011;27217;51.220;5.308;2022-12-07T03:18:16;35.63;;;17.50;;
41480;SDS011;27217;51.220;5.308;2022-12-07T03:20:46;30.63;;;18.15;;
41480;SDS011;27217;51.220;5.308;2022-12-07T03:23:15;29.90;;;16.35;;
41480;SDS011;27217;51.220;5.308;2022-12-07T03:25:46;32.13;;;16.80;;
41480;SDS011;27217;51.220;5.308;2022-12-07T03:28:15;32.75;;;16.70;;
41480;SDS011;27217;51.220;5.308;2022-12-07T03:30:46;37.90;;;18.38;;
41480;SDS011;27217;51.220;5.308;2022-12-07T03:33:29;32.38;;;15.63;;
41480;SDS011;27217;51.220;5.308;2022-12-07T03:36:39;28.17;;;15.73;;
41480;SDS011;27217;51.220;5.308;2022-12-07T03:41:50;35.70;;;16.05;;
41480;SDS011;27217;51.220;5.308;2022-12-07T03:44:17;30.52;;;15.93;;
41480;SDS011;27217;51.220;5.308;2022-12-07T03:46:44;33.65;;;15.90;;
41480;SDS011;27217;51.220;5.308;2022-12-07T03:52:18;27.80;;;15.93;;
41480;SDS011;27217;51.220;5.308;2022-12-07T03:57:44;33.72;;;16.35;;
41480;SDS011;27217;51.220;5.308;2022-12-07T04:00:13;32.63;;;17.17;;
41480;SDS011;27217;51.220;5.308;2022-12-07T04:02:40;33.17;;;17.63;;
41480;SDS011;27217;51.220;5.308;2022-12-07T04:05:07;37.40;;;18.00;;
41480;SDS011;27217;51.220;5.308;2022-12-07T04:07:33;34.28;;;18.90;;
41480;SDS011;27217;51.220;5.308;2022-12-07T04:09:59;36.13;;;18.17;;
41480;SDS011;27217;51.220;5.308;2022-12-07T04:12:25;32.60;;;19.58;;
41480;SDS011;27217;51.220;5.308;2022-12-07T04:15:03;38.55;;;19.35;;
41480;SDS011;27217;51.220;5.308;2022-12-07T04:17:30;33.88;;;18.52;;
41480;SDS011;27217;51.220;5.308;2022-12-07T04:19:56;37.17;;;19.08;;
41480;SDS011;27217;51.220;5.308;2022-12-07T04:22:21;38.45;;;20.33;;
41480;SDS011;27217;51.220;5.308;2022-12-07T04:24:47;40.15;;;19.85;;
41480;SDS011;27217;51.220;5.308;2022-12-07T04:27:13;36.92;;;19.42;;
41480;SDS011;27217;51.220;5.308;2022-12-07T04:29:40;37.40;;;18.05;;
41480;SDS011;27217;51.220;5.308;2022-12-07T04:32:06;30.15;;;17.83;;
41480;SDS011;27217;51.220;5.308;2022-12-07T04:34:31;29.35;;;16.67;;
41480;SDS011;27217;51.220;5.308;2022-12-07T04:36:57;29.30;;;16.80;;
41480;SDS011;27217;51.220;5.308;2022-12-07T04:39:30;28.40;;;16.42;;
41480;SDS011;27217;51.220;5.308;2022-12-07T04:41:57;38.08;;;16.70;;
41480;SDS011;27217;51.220;5.308;2022-12-07T04:44:24;30.95;;;16.10;;
41480;SDS011;27217;51.220;5.308;2022-12-07T04:46:52;36.10;;;17.00;;
41480;SDS011;27217;51.220;5.308;2022-12-07T04:49:18;44.45;;;17.33;;
41480;SDS011;27217;51.220;5.308;2022-12-07T04:51:45;32.40;;;16.52;;
41480;SDS011;27217;51.220;5.308;2022-12-07T04:54:12;32.38;;;16.65;;
41480;SDS011;27217;51.220;5.308;2022-12-07T04:56:39;44.38;;;17.45;;
41480;SDS011;27217;51.220;5.308;2022-12-07T04:59:04;33.75;;;17.35;;
41480;SDS011;27217;51.220;5.308;2022-12-07T05:01:31;36.85;;;17.63;;
41480;SDS011;27217;51.220;5.308;2022-12-07T05:03:58;40.10;;;20.63;;
41480;SDS011;27217;51.220;5.308;2022-12-07T05:06:24;33.03;;;16.98;;
41480;SDS011;27217;51.220;5.308;2022-12-07T05:08:51;30.88;;;18.08;;
41480;SDS011;27217;51.220;5.308;2022-12-07T05:11:17;41.13;;;18.27;;
41480;SDS011;27217;51.220;5.308;2022-12-07T05:14:02;34.38;;;17.00;;
41480;SDS011;27217;51.220;5.308;2022-12-07T05:16:30;35.00;;;18.70;;
41480;SDS011;27217;51.220;5.308;2022-12-07T05:18:56;33.97;;;17.90;;
41480;SDS011;27217;51.220;5.308;2022-12-07T05:21:22;36.72;;;17.40;;
41480;SDS011;27217;51.220;5.308;2022-12-07T05:23:48;32.08;;;17.75;;
41480;SDS011;27217;51.220;5.308;2022-12-07T05:26:14;36.53;;;15.60;;
41480;SDS011;27217;51.220;5.308;2022-12-07T05:28:40;29.23;;;16.27;;
41480;SDS011;27217;51.220;5.308;2022-12-07T05:31:06;33.60;;;15.95;;
41480;SDS011;27217;51.220;5.308;2022-12-07T05:33:32;33.45;;;16.40;;
41480;SDS011;27217;51.220;5.308;2022-12-07T05:35:57;27.27;;;15.70;;
41480;SDS011;27217;51.220;5.308;2022-12-07T05:38:23;32.40;;;15.75;;
41480;SDS011;27217;51.220;5.308;2022-12-07T05:40:50;38.15;;;15.75;;
41480;SDS011;27217;51.220;5.308;2022-12-07T05:43:16;39.10;;;15.13;;
41480;SDS011;27217;51.220;5.308;2022-12-07T05:45:42;28.73;;;14.95;;
41480;SDS011;27217;51.220;5.308;2022-12-07T05:48:08;30.20;;;14.50;;
41480;SDS011;27217;51.220;5.308;2022-12-07T05:50:34;28.17;;;15.98;;
41480;SDS011;27217;51.220;5.308;2022-12-07T05:53:00;35.63;;;16.65;;
41480;SDS011;27217;51.220;5.308;2022-12-07T05:55:26;33.88;;;16.85;;
41480;SDS011;27217;51.220;5.308;2022-12-07T05:57:52;33.47;;;15.60;;
41480;SDS011;27217;51.220;5.308;2022-12-07T06:00:36;35.92;;;16.25;;
41480;SDS011;27217;51.220;5.308;2022-12-07T06:03:03;32.03;;;15.57;;
41480;SDS011;27217;51.220;5.308;2022-12-07T06:05:29;28.27;;;15.90;;
41480;SDS011;27217;51.220;5.308;2022-12-07T06:07:54;28.23;;;16.30;;
41480;SDS011;27217;51.220;5.308;2022-12-07T06:10:20;33.40;;;16.05;;
41480;SDS011;27217;51.220;5.308;2022-12-07T06:12:46;31.58;;;15.75;;
41480;SDS011;27217;51.220;5.308;2022-12-07T06:15:12;32.85;;;16.38;;
41480;SDS011;27217;51.220;5.308;2022-12-07T06:17:38;31.50;;;16.25;;
41480;SDS011;27217;51.220;5.308;2022-12-07T06:20:04;35.45;;;18.42;;
41480;SDS011;27217;51.220;5.308;2022-12-07T06:22:31;42.10;;;17.75;;
41480;SDS011;27217;51.220;5.308;2022-12-07T06:24:57;42.22;;;18.58;;
41480;SDS011;27217;51.220;5.308;2022-12-07T06:27:24;33.60;;;17.88;;
41480;SDS011;27217;51.220;5.308;2022-12-07T06:29:50;40.88;;;18.48;;
41480;SDS011;27217;51.220;5.308;2022-12-07T06:32:16;38.80;;;18.77;;
41480;SDS011;27217;51.220;5.308;2022-12-07T06:34:43;39.50;;;19.73;;
41480;SDS011;27217;51.220;5.308;2022-12-07T06:37:08;50.63;;;21.58;;
41480;SDS011;27217;51.220;5.308;2022-12-07T06:39:35;53.88;;;20.60;;
41480;SDS011;27217;51.220;5.308;2022-12-07T06:42:01;69.90;;;24.85;;
41480;SDS011;27217;51.220;5.308;2022-12-07T06:44:27;155.20;;;25.33;;
41480;SDS011;27217;51.220;5.308;2022-12-07T06:46:52;189.35;;;28.13;;
41480;SDS011;27217;51.220;5.308;2022-12-07T06:49:18;149.52;;;26.13;;
41480;SDS011;27217;51.220;5.308;2022-12-07T06:51:44;308.77;;;30.85;;
41480;SDS011;27217;51.220;5.308;2022-12-07T06:54:10;389.52;;;36.47;;
41480;SDS011;27217;51.220;5.308;2022-12-07T06:56:37;276.65;;;35.63;;
41480;SDS011;27217;51.220;5.308;2022-12-07T06:59:04;189.65;;;29.27;;
41480;SDS011;27217;51.220;5.308;2022-12-07T07:01:31;265.27;;;35.20;;
41480;SDS011;27217;51.220;5.308;2022-12-07T07:03:57;202.18;;;31.02;;
41480;SDS011;27217;51.220;5.308;2022-12-07T07:06:23;237.50;;;33.88;;
41480;SDS011;27217;51.220;5.308;2022-12-07T07:08:49;162.88;;;31.40;;
41480;SDS011;27217;51.220;5.308;2022-12-07T07:11:14;245.95;;;34.72;;
41480;SDS011;27217;51.220;5.308;2022-12-07T07:13:41;149.18;;;31.10;;
41480;SDS011;27217;51.220;5.308;2022-12-07T07:16:07;183.55;;;32.85;;
41480;SDS011;27217;51.220;5.308;2022-12-07T07:18:33;188.35;;;35.72;;
41480;SDS011;27217;51.220;5.308;2022-12-07T07:20:59;242.88;;;36.67;;
41480;SDS011;27217;51.220;5.308;2022-12-07T07:23:26;150.50;;;30.58;;
41480;SDS011;27217;51.220;5.308;2022-12-07T07:25:52;227.50;;;33.88;;
41480;SDS011;27217;51.220;5.308;2022-12-07T07:28:18;238.25;;;35.55;;
41480;SDS011;27217;51.220;5.308;2022-12-07T07:30:43;109.25;;;29.45;;
41480;SDS011;27217;51.220;5.308;2022-12-07T07:33:10;180.05;;;33.00;;
41480;SDS011;27217;51.220;5.308;2022-12-07T07:35:36;142.55;;;30.65;;
41480;SDS011;27217;51.220;5.308;2022-12-07T07:38:05;83.57;;;27.75;;
41480;SDS011;27217;51.220;5.308;2022-12-07T07:40:31;90.30;;;30.20;;
41480;SDS011;27217;51.220;5.308;2022-12-07T07:42:57;76.80;;;30.35;;
41480;SDS011;27217;51.220;5.308;2022-12-07T07:45:24;76.70;;;30.20;;
41480;SDS011;27217;51.220;5.308;2022-12-07T07:47:51;64.25;;;28.63;;
41480;SDS011;27217;51.220;5.308;2022-12-07T07:50:17;91.35;;;29.17;;
41480;SDS011;27217;51.220;5.308;2022-12-07T07:52:43;72.50;;;30.08;;
41480;SDS011;27217;51.220;5.308;2022-12-07T07:55:10;82.28;;;29.85;;
41480;SDS011;27217;51.220;5.308;2022-12-07T07:57:36;85.95;;;31.20;;
41480;SDS011;27217;51.220;5.308;2022-12-07T08:00:03;91.88;;;32.80;;
41480;SDS011;27217;51.220;5.308;2022-12-07T08:02:32;85.15;;;32.38;;
41480;SDS011;27217;51.220;5.308;2022-12-07T08:04:57;105.82;;;32.25;;
41480;SDS011;27217;51.220;5.308;2022-12-07T08:07:23;110.45;;;31.23;;
41480;SDS011;27217;51.220;5.308;2022-12-07T08:09:49;114.63;;;30.52;;
41480;SDS011;27217;51.220;5.308;2022-12-07T08:12:15;141.10;;;32.63;;
41480;SDS011;27217;51.220;5.308;2022-12-07T08:14:40;115.35;;;33.80;;
41480;SDS011;27217;51.220;5.308;2022-12-07T08:17:06;163.18;;;34.97;;
41480;SDS011;27217;51.220;5.308;2022-12-07T08:19:35;140.20;;;36.33;;
41480;SDS011;27217;51.220;5.308;2022-12-07T08:22:01;107.38;;;36.03;;
41480;SDS011;27217;51.220;5.308;2022-12-07T08:24:30;110.32;;;35.85;;
41480;SDS011;27217;51.220;5.308;2022-12-07T08:26:58;75.70;;;27.25;;
41480;SDS011;27217;51.220;5.308;2022-12-07T08:29:25;79.65;;;31.00;;
41480;SDS011;27217;51.220;5.308;2022-12-07T08:31:50;86.47;;;31.65;;
41480;SDS011;27217;51.220;5.308;2022-12-07T08:34:16;89.97;;;31.58;;
41480;SDS011;27217;51.220;5.308;2022-12-07T08:36:42;91.88;;;30.48;;
41480;SDS011;27217;51.220;5.308;2022-12-07T08:39:08;90.55;;;30.08;;
41480;SDS011;27217;51.220;5.308;2022-12-07T08:41:34;61.88;;;27.30;;
41480;SDS011;27217;51.220;5.308;2022-12-07T08:44:00;64.95;;;25.25;;
41480;SDS011;27217;51.220;5.308;2022-12-07T08:49:07;62.88;;;22.65;;
41480;SDS011;27217;51.220;5.308;2022-12-07T08:51:37;59.58;;;24.23;;
41480;SDS011;27217;51.220;5.308;2022-12-07T08:54:04;59.72;;;22.45;;
41480;SDS011;27217;51.220;5.308;2022-12-07T08:56:37;52.38;;;20.85;;
41480;SDS011;27217;51.220;5.308;2022-12-07T08:59:04;42.97;;;19.23;;
41480;SDS011;27217;51.220;5.308;2022-12-07T09:01:33;43.42;;;19.80;;
41480;SDS011;27217;51.220;5.308;2022-12-07T09:03:59;41.60;;;18.17;;
41480;SDS011;27217;51.220;5.308;2022-12-07T09:06:25;40.80;;;17.50;;
41480;SDS011;27217;51.220;5.308;2022-12-07T09:08:53;42.83;;;18.08;;
41480;SDS011;27217;51.220;5.308;2022-12-07T09:11:23;40.08;;;19.45;;
41480;SDS011;27217;51.220;5.308;2022-12-07T09:13:49;39.42;;;19.05;;
41480;SDS011;27217;51.220;5.308;2022-12-07T09:16:15;36.17;;;17.10;;
41480;SDS011;27217;51.220;5.308;2022-12-07T09:18:41;38.33;;;17.25;;
41480;SDS011;27217;51.220;5.308;2022-12-07T09:21:07;52.45;;;19.42;;
41480;SDS011;27217;51.220;5.308;2022-12-07T09:23:33;31.10;;;14.55;;
41480;SDS011;27217;51.220;5.308;2022-12-07T09:25:59;32.40;;;13.75;;
41480;SDS011;27217;51.220;5.308;2022-12-07T09:28:26;28.08;;;12.18;;
41480;SDS011;27217;51.220;5.308;2022-12-07T09:30:52;29.23;;;12.50;;
41480;SDS011;27217;51.220;5.308;2022-12-07T09:33:18;24.25;;;11.40;;
41480;SDS011;27217;51.220;5.308;2022-12-07T09:35:45;27.02;;;10.85;;
41480;SDS011;27217;51.220;5.308;2022-12-07T09:38:15;34.88;;;11.27;;
41480;SDS011;27217;51.220;5.308;2022-12-07T09:40:41;25.83;;;11.63;;
41480;SDS011;27217;51.220;5.308;2022-12-07T09:43:15;27.42;;;10.20;;
41480;SDS011;27217;51.220;5.308;2022-12-07T09:45:44;20.10;;;11.13;;
41480;SDS011;27217;51.220;5.308;2022-12-07T09:48:19;21.85;;;11.45;;
41480;SDS011;27217;51.220;5.308;2022-12-07T09:50:48;27.00;;;10.68;;
41480;SDS011;27217;51.220;5.308;2022-12-07T09:53:37;27.70;;;11.82;;
41480;SDS011;27217;51.220;5.308;2022-12-07T09:56:03;22.52;;;11.75;;
41480;SDS011;27217;51.220;5.308;2022-12-07T09:58:29;24.58;;;11.32;;
41480;SDS011;27217;51.220;5.308;2022-12-07T10:00:57;28.90;;;12.48;;
41480;SDS011;27217;51.220;5.308;2022-12-07T10:03:28;27.20;;;12.75;;
41480;SDS011;27217;51.220;5.308;2022-12-07T10:05:54;27.65;;;11.95;;
41480;SDS011;27217;51.220;5.308;2022-12-07T10:08:22;27.60;;;12.68;;
41480;SDS011;27217;51.220;5.308;2022-12-07T10:10:52;27.35;;;13.20;;
41480;SDS011;27217;51.220;5.308;2022-12-07T10:13:34;25.67;;;12.23;;
41480;SDS011;27217;51.220;5.308;2022-12-07T10:16:02;22.48;;;10.50;;
41480;SDS011;27217;51.220;5.308;2022-12-07T10:18:40;19.98;;;9.18;;
41480;SDS011;27217;51.220;5.308;2022-12-07T10:26:51;19.02;;;7.68;;
41480;SDS011;27217;51.220;5.308;2022-12-07T10:31:46;13.70;;;7.30;;
41480;SDS011;27217;51.220;5.308;2022-12-07T10:34:28;18.42;;;8.10;;
41480;SDS011;27217;51.220;5.308;2022-12-07T10:39:46;11.02;;;6.43;;
41480;SDS011;27217;51.220;5.308;2022-12-07T10:44:48;13.98;;;6.55;;
41480;SDS011;27217;51.220;5.308;2022-12-07T10:50:14;17.55;;;6.25;;
41480;SDS011;27217;51.220;5.308;2022-12-07T10:58:06;11.02;;;5.85;;
41480;SDS011;27217;51.220;5.308;2022-12-07T11:01:16;13.20;;;5.68;;
41480;SDS011;27217;51.220;5.308;2022-12-07T11:04:50;22.67;;;4.60;;
41480;SDS011;27217;51.220;5.308;2022-12-07T11:18:07;13.98;;;5.30;;
41480;SDS011;27217;51.220;5.308;2022-12-07T11:20:53;14.07;;;5.38;;
41480;SDS011;27217;51.220;5.308;2022-12-07T11:34:22;11.57;;;4.90;;
41480;SDS011;27217;51.220;5.308;2022-12-07T11:36:53;13.43;;;4.53;;
41480;SDS011;27217;51.220;5.308;2022-12-07T11:41:47;12.82;;;3.90;;
41480;SDS011;27217;51.220;5.308;2022-12-07T11:44:30;9.85;;;3.60;;
41480;SDS011;27217;51.220;5.308;2022-12-07T11:47:09;9.43;;;3.95;;
41480;SDS011;27217;51.220;5.308;2022-12-07T11:52:48;11.98;;;4.50;;
41480;SDS011;27217;51.220;5.308;2022-12-07T12:09:11;8.90;;;3.40;;
41480;SDS011;27217;51.220;5.308;2022-12-07T12:11:47;9.65;;;3.80;;
41480;SDS011;27217;51.220;5.308;2022-12-07T12:23:10;5.45;;;3.40;;
41480;SDS011;27217;51.220;5.308;2022-12-07T12:25:45;10.70;;;3.05;;
41480;SDS011;27217;51.220;5.308;2022-12-07T12:28:30;13.80;;;3.85;;
41480;SDS011;27217;51.220;5.308;2022-12-07T12:33:50;12.68;;;4.10;;
41480;SDS011;27217;51.220;5.308;2022-12-07T12:39:11;7.05;;;2.97;;
41480;SDS011;27217;51.220;5.308;2022-12-07T12:51:47;22.30;;;3.50;;
41480;SDS011;27217;51.220;5.308;2022-12-07T12:54:19;9.90;;;2.95;;
41480;SDS011;27217;51.220;5.308;2022-12-07T13:02:21;6.05;;;2.83;;
41480;SDS011;27217;51.220;5.308;2022-12-07T13:29:12;5.53;;;2.55;;
41480;SDS011;27217;51.220;5.308;2022-12-07T13:37:01;9.00;;;2.03;;
41480;SDS011;27217;51.220;5.308;2022-12-07T13:39:35;5.20;;;2.38;;
41480;SDS011;27217;51.220;5.308;2022-12-07T13:42:16;9.98;;;2.53;;
41480;SDS011;27217;51.220;5.308;2022-12-07T13:44:54;4.97;;;2.15;;
41480;SDS011;27217;51.220;5.308;2022-12-07T13:47:39;5.40;;;2.30;;
41480;SDS011;27217;51.220;5.308;2022-12-07T13:50:27;7.15;;;2.70;;
41480;SDS011;27217;51.220;5.308;2022-12-07T13:52:55;10.13;;;2.72;;
41480;SDS011;27217;51.220;5.308;2022-12-07T13:55:25;7.07;;;3.33;;
41480;SDS011;27217;51.220;5.308;2022-12-07T13:57:53;9.27;;;3.53;;
41480;SDS011;27217;51.220;5.308;2022-12-07T14:00:20;10.77;;;3.80;;
41480;SDS011;27217;51.220;5.308;2022-12-07T14:03:20;18.97;;;4.03;;
41480;SDS011;27217;51.220;5.308;2022-12-07T14:05:40;12.35;;;4.15;;
41480;SDS011;27217;51.220;5.308;2022-12-07T14:10:37;12.57;;;5.38;;
41480;SDS011;27217;51.220;5.308;2022-12-07T14:15:52;11.52;;;2.90;;
41480;SDS011;27217;51.220;5.308;2022-12-07T14:18:28;11.00;;;3.17;;
41480;SDS011;27217;51.220;5.308;2022-12-07T14:23:36;7.70;;;3.10;;
41480;SDS011;27217;51.220;5.308;2022-12-07T14:26:07;13.95;;;3.67;;
41480;SDS011;27217;51.220;5.308;2022-12-07T14:28:41;9.68;;;2.75;;
41480;SDS011;27217;51.220;5.308;2022-12-07T14:31:12;11.98;;;3.33;;
41480;SDS011;27217;51.220;5.308;2022-12-07T14:33:40;14.52;;;3.85;;
41480;SDS011;27217;51.220;5.308;2022-12-07T14:36:10;9.85;;;3.15;;
41480;SDS011;27217;51.220;5.308;2022-12-07T14:38:37;8.43;;;3.80;;
41480;SDS011;27217;51.220;5.308;2022-12-07T14:41:03;8.57;;;3.60;;
41480;SDS011;27217;51.220;5.308;2022-12-07T14:43:49;8.15;;;3.80;;
41480;SDS011;27217;51.220;5.308;2022-12-07T14:46:15;12.43;;;4.28;;
41480;SDS011;27217;51.220;5.308;2022-12-07T14:48:41;13.57;;;5.30;;
41480;SDS011;27217;51.220;5.308;2022-12-07T14:51:07;21.00;;;4.28;;
41480;SDS011;27217;51.220;5.308;2022-12-07T14:53:36;8.88;;;4.82;;
41480;SDS011;27217;51.220;5.308;2022-12-07T14:56:11;13.00;;;4.95;;
41480;SDS011;27217;51.220;5.308;2022-12-07T14:58:36;15.20;;;4.00;;
41480;SDS011;27217;51.220;5.308;2022-12-07T15:01:02;10.40;;;3.85;;
41480;SDS011;27217;51.220;5.308;2022-12-07T15:03:29;14.52;;;4.10;;
41480;SDS011;27217;51.220;5.308;2022-12-07T15:05:55;8.98;;;4.32;;
41480;SDS011;27217;51.220;5.308;2022-12-07T15:08:21;11.90;;;4.00;;
41480;SDS011;27217;51.220;5.308;2022-12-07T15:10:47;10.45;;;3.88;;
41480;SDS011;27217;51.220;5.308;2022-12-07T15:13:13;7.72;;;4.47;;
41480;SDS011;27217;51.220;5.308;2022-12-07T15:15:58;12.00;;;4.75;;
41480;SDS011;27217;51.220;5.308;2022-12-07T15:18:25;13.27;;;4.88;;
41480;SDS011;27217;51.220;5.308;2022-12-07T15:20:50;11.45;;;4.40;;
41480;SDS011;27217;51.220;5.308;2022-12-07T15:23:17;12.55;;;5.10;;
41480;SDS011;27217;51.220;5.308;2022-12-07T15:25:43;20.58;;;6.43;;
41480;SDS011;27217;51.220;5.308;2022-12-07T15:28:10;15.40;;;5.53;;
41480;SDS011;27217;51.220;5.308;2022-12-07T15:30:37;14.10;;;5.93;;
41480;SDS011;27217;51.220;5.308;2022-12-07T15:33:04;21.30;;;7.28;;
41480;SDS011;27217;51.220;5.308;2022-12-07T15:35:33;12.95;;;6.53;;
41480;SDS011;27217;51.220;5.308;2022-12-07T15:38:03;13.05;;;6.30;;
41480;SDS011;27217;51.220;5.308;2022-12-07T15:40:29;10.60;;;6.15;;
41480;SDS011;27217;51.220;5.308;2022-12-07T15:42:55;16.20;;;6.07;;
41480;SDS011;27217;51.220;5.308;2022-12-07T15:45:20;17.48;;;5.68;;
41480;SDS011;27217;51.220;5.308;2022-12-07T15:47:46;11.02;;;5.80;;
41480;SDS011;27217;51.220;5.308;2022-12-07T15:50:14;13.95;;;5.93;;
41480;SDS011;27217;51.220;5.308;2022-12-07T15:52:41;9.65;;;5.95;;
41480;SDS011;27217;51.220;5.308;2022-12-07T15:55:08;23.30;;;5.80;;
41480;SDS011;27217;51.220;5.308;2022-12-07T15:57:35;11.45;;;6.10;;
41480;SDS011;27217;51.220;5.308;2022-12-07T16:00:02;15.05;;;6.63;;
41480;SDS011;27217;51.220;5.308;2022-12-07T16:02:29;16.55;;;6.32;;
41480;SDS011;27217;51.220;5.308;2022-12-07T16:04:55;13.68;;;6.63;;
41480;SDS011;27217;51.220;5.308;2022-12-07T16:07:21;18.17;;;6.68;;
41480;SDS011;27217;51.220;5.308;2022-12-07T16:09:47;10.70;;;5.82;;
41480;SDS011;27217;51.220;5.308;2022-12-07T16:12:14;12.30;;;5.95;;
41480;SDS011;27217;51.220;5.308;2022-12-07T16:14:41;14.57;;;7.30;;
41480;SDS011;27217;51.220;5.308;2022-12-07T16:17:07;12.38;;;6.88;;
41480;SDS011;27217;51.220;5.308;2022-12-07T16:19:35;17.67;;;6.63;;
41480;SDS011;27217;51.220;5.308;2022-12-07T16:22:02;13.85;;;6.40;;
41480;SDS011;27217;51.220;5.308;2022-12-07T16:24:28;13.77;;;7.43;;
41480;SDS011;27217;51.220;5.308;2022-12-07T16:26:55;14.23;;;7.20;;
41480;SDS011;27217;51.220;5.308;2022-12-07T16:29:22;21.45;;;7.53;;
41480;SDS011;27217;51.220;5.308;2022-12-07T16:31:49;17.48;;;8.15;;
41480;SDS011;27217;51.220;5.308;2022-12-07T16:34:16;13.80;;;7.50;;
41480;SDS011;27217;51.220;5.308;2022-12-07T16:36:43;14.55;;;8.35;;
41480;SDS011;27217;51.220;5.308;2022-12-07T16:39:08;22.67;;;9.27;;
41480;SDS011;27217;51.220;5.308;2022-12-07T16:41:35;16.85;;;8.77;;
41480;SDS011;27217;51.220;5.308;2022-12-07T16:44:02;15.50;;;8.48;;
41480;SDS011;27217;51.220;5.308;2022-12-07T16:46:31;21.33;;;9.10;;
41480;SDS011;27217;51.220;5.308;2022-12-07T16:48:58;21.08;;;10.27;;
41480;SDS011;27217;51.220;5.308;2022-12-07T16:51:24;19.58;;;9.18;;
41480;SDS011;27217;51.220;5.308;2022-12-07T16:53:51;25.75;;;10.20;;
41480;SDS011;27217;51.220;5.308;2022-12-07T16:56:18;23.80;;;8.73;;
41480;SDS011;27217;51.220;5.308;2022-12-07T16:58:44;17.83;;;8.60;;
41480;SDS011;27217;51.220;5.308;2022-12-07T17:01:13;19.20;;;8.52;;
41480;SDS011;27217;51.220;5.308;2022-12-07T17:03:41;21.63;;;9.48;;
41480;SDS011;27217;51.220;5.308;2022-12-07T17:06:26;17.80;;;9.60;;
41480;SDS011;27217;51.220;5.308;2022-12-07T17:08:53;14.25;;;8.15;;
41480;SDS011;27217;51.220;5.308;2022-12-07T17:11:22;22.33;;;9.60;;
41480;SDS011;27217;51.220;5.308;2022-12-07T17:13:49;13.60;;;8.15;;
41480;SDS011;27217;51.220;5.308;2022-12-07T17:16:34;13.20;;;7.85;;
41480;SDS011;27217;51.220;5.308;2022-12-07T17:19:04;14.02;;;7.57;;